Time;durP1;ratioP1;P1;durP2;ratioP2;P2;SDS_P1;SDS_P2;PMS_P1;PMS_P2;Temp;Humidity;BMP_temperature;BMP_pressure;BME280_temperature;BME280_humidity;BME280_pressure;Samples;Min_cycle;Max_cycle;Signal;HPM_P1;HPM_P2
2021/04/15 00:00:08;;;;;;;;;;;-0.70;99.90;;;;;;5090555;28;19914;-71
2021/04/15 00:02:33;;;;;;;;;;;-0.70;99.90;;;;;;5090613;28;19958;-72
2021/04/15 00:04:59;;;;;;;;;;;-0.70;99.90;;;;;;5090526;28;19909;-71
2021/04/15 00:07:24;;;;;;;;;;;-0.70;99.90;;;;;;5089537;28;20003;-71
2021/04/15 00:09:50;;;;;;;;;;;-0.70;99.90;;;;;;5090548;28;20262;-72
2021/04/15 00:12:15;;;;;;;;;;;-0.80;99.90;;;;;;5090392;28;19955;-71
2021/04/15 00:14:40;;;;;;;;;;;-0.80;99.90;;;;;;5090448;28;20308;-75
2021/04/15 00:17:06;;;;;;;;;;;-0.90;99.90;;;;;;5089539;28;19908;-71
2021/04/15 00:19:31;;;;;;;;;;;-0.90;99.90;;;;;;5090401;28;20399;-74
2021/04/15 00:21:57;;;;;;;;;;;-0.90;99.90;;;;;;5090488;28;19909;-71
2021/04/15 00:24:22;;;;;;;;;;;-1.00;99.90;;;;;;5092982;28;19951;-71
2021/04/15 00:26:48;;;;;;;;;;;-1.00;99.90;;;;;;5065497;28;20277;-72
2021/04/15 00:29:13;;;;;;;;;;;-1.00;99.90;;;;;;5073531;28;20435;-71
2021/04/15 00:31:39;;;;;;;;;;;-1.00;99.90;;;;;;5073432;28;19952;-71
2021/04/15 00:34:04;;;;;;;;;;;-1.00;99.90;;;;;;5073547;28;20031;-71
2021/04/15 00:36:30;;;;;;;;;;;-1.00;99.90;;;;;;5072372;28;19916;-72
2021/04/15 00:38:56;;;;;;;;;;;-1.00;99.90;;;;;;5073582;28;19969;-71
2021/04/15 00:41:22;;;;;;;;;;;-1.00;99.90;;;;;;5073315;28;19947;-71
2021/04/15 00:43:47;;;;;;;;;;;-1.00;99.90;;;;;;5073538;28;20358;-71
2021/04/15 00:46:22;;;;;;;;;;;-1.10;99.90;;;;;;5072345;28;19916;-71
2021/04/15 00:48:47;;;;;;;;;;;-1.10;99.90;;;;;;5073370;28;19915;-71
2021/04/15 00:51:15;;;;;;;;;;;-1.20;99.90;;;;;;5073357;28;19909;-71
2021/04/15 00:53:46;;;;;;;;;;;-1.20;99.90;;;;;;5073293;28;20407;-73
2021/04/15 00:56:12;;;;;;;;;;;-1.30;99.90;;;;;;5065057;28;19908;-71
2021/04/15 00:58:37;;;;;;;;;;;-1.30;99.90;;;;;;5073179;28;20208;-72
2021/04/15 01:01:03;;;;;;;;;;;-1.40;99.90;;;;;;5071784;28;20341;-71
2021/04/15 01:03:29;;;;;;;;;;;-1.50;99.90;;;;;;5068550;28;20412;-72
2021/04/15 01:05:55;;;;;;;;;;;-1.50;99.90;;;;;;5072118;28;19912;-75
2021/04/15 01:08:20;;;;;;;;;;;-1.60;99.90;;;;;;5072956;28;20011;-71
2021/04/15 01:10:54;;;;;;;;;;;-1.60;99.90;;;;;;5073037;28;19915;-71
2021/04/15 01:13:40;;;;;;;;;;;-1.70;99.90;;;;;;5072872;28;20012;-71
2021/04/15 01:16:24;;;;;;;;;;;-1.70;99.90;;;;;;5071653;28;19997;-71
2021/04/15 01:18:54;;;;;;;;;;;-1.80;99.90;;;;;;5072690;28;19943;-71
2021/04/15 01:21:46;;;;;;;;;;;-1.80;99.90;;;;;;5072881;28;19915;-73
2021/04/15 01:24:16;;;;;;;;;;;-1.90;99.90;;;;;;5072798;28;19920;-73
2021/04/15 01:27:00;;;;;;;;;;;-1.90;99.90;;;;;;5071235;28;19923;-73
2021/04/15 01:29:33;;;;;;;;;;;-1.90;99.90;;;;;;5072327;28;19924;-72
2021/04/15 01:31:58;;;;;;;;;;;-2.00;99.90;;;;;;5072253;28;20373;-71
2021/04/15 01:34:24;;;;;;;;;;;-1.90;99.90;;;;;;5072139;28;19913;-71
2021/04/15 01:37:01;;;;;;;;;;;-1.90;99.90;;;;;;5069721;28;20032;-74
2021/04/15 01:39:33;;;;;;;;;;;-1.90;99.90;;;;;;5072381;28;19909;-71
2021/04/15 01:42:09;;;;;;;;;;;-1.90;99.90;;;;;;5072238;28;20282;-71
2021/04/15 01:45:06;;;;;;;;;;;-1.90;99.90;;;;;;5072504;28;19916;-72
2021/04/15 01:47:53;;;;;;;;;;;-1.90;99.90;;;;;;5069753;28;19922;-72
2021/04/15 01:50:21;;;;;;;;;;;-1.90;99.90;;;;;;5072178;28;19936;-71
2021/04/15 01:52:49;;;;;;;;;;;-2.00;99.90;;;;;;5072043;28;19953;-71
2021/04/15 01:55:17;;;;;;;;;;;-2.00;99.90;;;;;;5065043;28;19983;-71
2021/04/15 01:57:58;;;;;;;;;;;-2.00;99.90;;;;;;5062829;28;19908;-73
2021/04/15 02:00:26;;;;;;;;;;;-2.00;99.90;;;;;;5072082;28;20354;-73
2021/04/15 02:02:56;;;;;;;;;;;-2.10;99.90;;;;;;5071846;28;19912;-71
2021/04/15 02:05:24;;;;;;;;;;;-2.10;99.90;;;;;;5071906;28;19909;-71
2021/04/15 02:07:58;;;;;;;;;;;-2.00;99.90;;;;;;5070677;28;19931;-71
2021/04/15 02:10:25;;;;;;;;;;;-2.10;99.90;;;;;;5071804;28;19913;-74
2021/04/15 02:13:01;;;;;;;;;;;-2.00;99.90;;;;;;5071681;28;20388;-74
2021/04/15 02:24:47;;;;;;;;;;;-2.10;99.90;;;;;;5066827;28;20395;-71
2021/04/15 02:27:16;;;;;;;;;;;-2.20;99.90;;;;;;5066324;28;20277;-72
2021/04/15 02:29:45;;;;;;;;;;;-2.20;99.90;;;;;;5071308;28;19913;-72
2021/04/15 02:32:15;;;;;;;;;;;-2.20;99.90;;;;;;5071023;28;19909;-72
2021/04/15 02:34:44;;;;;;;;;;;-2.20;99.90;;;;;;5071558;28;19912;-75
2021/04/15 02:37:36;;;;;;;;;;;-2.20;99.90;;;;;;5070436;28;20409;-71
2021/04/15 02:40:06;;;;;;;;;;;-2.20;99.90;;;;;;5070905;28;20021;-71
2021/04/15 02:42:34;;;;;;;;;;;-2.20;99.90;;;;;;5070973;28;19909;-72
2021/04/15 02:45:05;;;;;;;;;;;-2.30;99.90;;;;;;5071321;28;19915;-71
2021/04/15 02:47:33;;;;;;;;;;;-2.30;99.90;;;;;;5068659;28;19999;-71
2021/04/15 02:49:59;;;;;;;;;;;-2.30;99.90;;;;;;5071185;28;20011;-71
2021/04/15 02:52:33;;;;;;;;;;;-2.30;99.90;;;;;;5070975;28;19962;-71
2021/04/15 02:55:02;;;;;;;;;;;-2.30;99.90;;;;;;5066252;28;19921;-71
2021/04/15 02:57:36;;;;;;;;;;;-2.40;99.90;;;;;;5076424;28;19912;-74
2021/04/15 03:00:04;;;;;;;;;;;-2.40;99.90;;;;;;5071116;28;19918;-74
2021/04/15 03:02:32;;;;;;;;;;;-2.40;99.90;;;;;;5070504;28;19909;-75
2021/04/15 03:05:02;;;;;;;;;;;-2.50;99.90;;;;;;5070929;28;19909;-73
2021/04/15 03:07:29;;;;;;;;;;;-2.40;99.90;;;;;;5070074;28;19951;-72
2021/04/15 03:09:56;;;;;;;;;;;-2.40;99.90;;;;;;5070945;28;19908;-71
2021/04/15 03:12:30;;;;;;;;;;;-2.40;99.90;;;;;;5070670;28;19975;-75
2021/04/15 03:14:59;;;;;;;;;;;-2.50;99.90;;;;;;5071082;28;19951;-71
2021/04/15 03:17:26;;;;;;;;;;;-2.60;99.90;;;;;;5069568;28;19999;-71
2021/04/15 03:20:03;;;;;;;;;;;-2.80;99.90;;;;;;5070558;28;20504;-74
2021/04/15 03:22:47;;;;;;;;;;;-2.80;99.90;;;;;;5070508;28;19908;-71
2021/04/15 03:25:12;;;;;;;;;;;-2.80;99.90;;;;;;5063982;28;19913;-71
2021/04/15 03:27:47;;;;;;;;;;;-2.80;99.90;;;;;;5068979;28;19909;-74
2021/04/15 03:30:33;;;;;;;;;;;-2.80;99.90;;;;;;5070387;28;19979;-72
2021/04/15 03:33:07;;;;;;;;;;;-2.80;99.90;;;;;;5069855;28;19908;-73
2021/04/15 03:35:38;;;;;;;;;;;-2.80;99.90;;;;;;5070174;28;19917;-71
2021/04/15 03:38:36;;;;;;;;;;;-2.80;99.90;;;;;;5070115;28;20290;-71
2021/04/15 03:41:15;;;;;;;;;;;-2.80;99.90;;;;;;5069191;28;19920;-71
2021/04/15 03:43:42;;;;;;;;;;;-2.70;99.90;;;;;;5070820;28;19908;-73
2021/04/15 03:46:15;;;;;;;;;;;-2.70;99.90;;;;;;5069406;28;19915;-71
2021/04/15 03:48:42;;;;;;;;;;;-2.70;99.90;;;;;;5070419;28;20305;-76
2021/04/15 03:51:10;;;;;;;;;;;-2.70;99.90;;;;;;5070958;28;19919;-71
2021/04/15 03:53:38;;;;;;;;;;;-2.70;99.90;;;;;;5070154;28;19908;-71
2021/04/15 03:56:12;;;;;;;;;;;-2.70;99.90;;;;;;5062179;28;19994;-71
2021/04/15 03:58:42;;;;;;;;;;;-2.70;99.90;;;;;;5071566;28;20003;-71
2021/04/15 04:01:22;;;;;;;;;;;-2.70;99.90;;;;;;5073973;28;19959;-71
2021/04/15 04:03:55;;;;;;;;;;;-2.70;99.90;;;;;;5074121;28;20358;-71
2021/04/15 04:06:23;;;;;;;;;;;-2.80;99.90;;;;;;5073120;28;20108;-75
2021/04/15 04:08:52;;;;;;;;;;;-2.70;99.90;;;;;;5073949;28;20362;-74
2021/04/15 04:11:19;;;;;;;;;;;-2.70;99.90;;;;;;5074014;28;20003;-72
2021/04/15 04:13:46;;;;;;;;;;;-2.80;99.90;;;;;;5073702;28;19909;-71
2021/04/15 04:16:26;;;;;;;;;;;-2.70;99.90;;;;;;5072719;28;20428;-71
2021/04/15 04:19:00;;;;;;;;;;;-2.80;99.90;;;;;;5073865;28;19908;-71
2021/04/15 04:21:25;;;;;;;;;;;-2.90;99.90;;;;;;5074167;28;20308;-72
2021/04/15 04:23:51;;;;;;;;;;;-2.90;99.90;;;;;;5073700;28;19913;-74
2021/04/15 04:26:19;;;;;;;;;;;-3.00;99.90;;;;;;5065597;28;20460;-71
2021/04/15 04:29:04;;;;;;;;;;;-3.00;99.90;;;;;;5093731;28;19912;-74
2021/04/15 04:31:35;;;;;;;;;;;-3.00;99.90;;;;;;5093736;28;20361;-71
2021/04/15 04:34:01;;;;;;;;;;;-3.10;99.90;;;;;;5094235;28;19908;-71
2021/04/15 04:36:27;;;;;;;;;;;-3.10;99.90;;;;;;5092741;28;20330;-71
2021/04/15 04:38:55;;;;;;;;;;;-3.10;99.90;;;;;;5093598;28;19915;-71
2021/04/15 04:41:29;;;;;;;;;;;-3.20;99.90;;;;;;5093668;28;19962;-71
2021/04/15 04:43:59;;;;;;;;;;;-3.20;99.90;;;;;;5093559;28;20003;-71
2021/04/15 04:46:31;;;;;;;;;;;-3.10;99.90;;;;;;5092513;28;19969;-72
2021/04/15 04:49:05;;;;;;;;;;;-3.10;99.90;;;;;;5093508;28;19908;-72
2021/04/15 04:51:49;;;;;;;;;;;-3.10;99.90;;;;;;5093412;28;20039;-72
2021/04/15 04:54:18;;;;;;;;;;;-3.10;99.90;;;;;;5093644;28;19912;-72
2021/04/15 04:56:53;;;;;;;;;;;-3.10;99.90;;;;;;5065638;28;20311;-71
2021/04/15 04:59:24;;;;;;;;;;;-3.10;99.90;;;;;;5072860;28;19916;-71
2021/04/15 05:01:49;;;;;;;;;;;-3.00;99.90;;;;;;5072695;28;19913;-71
2021/04/15 05:04:18;;;;;;;;;;;-3.00;99.90;;;;;;5073187;28;20007;-71
2021/04/15 05:06:44;;;;;;;;;;;-2.90;99.90;;;;;;5072095;28;19909;-71
2021/04/15 05:09:18;;;;;;;;;;;-2.90;99.90;;;;;;5072766;28;19991;-71
2021/04/15 05:11:46;;;;;;;;;;;-2.80;99.90;;;;;;5072189;28;19935;-71
2021/04/15 05:14:14;;;;;;;;;;;-2.80;99.90;;;;;;5072608;28;19959;-71
2021/04/15 05:16:48;;;;;;;;;;;-2.70;99.90;;;;;;5071777;28;20344;-71
2021/04/15 05:19:14;;;;;;;;;;;-2.70;99.90;;;;;;5072799;28;20396;-71
2021/04/15 05:21:42;;;;;;;;;;;-2.70;99.90;;;;;;5072555;28;19915;-71
2021/04/15 05:24:26;;;;;;;;;;;-2.70;99.90;;;;;;5072627;28;19909;-71
2021/04/15 05:26:52;;;;;;;;;;;-2.60;99.90;;;;;;5064673;28;19912;-71
2021/04/15 05:29:21;;;;;;;;;;;-2.60;99.90;;;;;;5072389;28;20351;-72
2021/04/15 05:31:47;;;;;;;;;;;-2.50;99.90;;;;;;5072153;28;20385;-71
2021/04/15 05:34:24;;;;;;;;;;;-2.40;99.90;;;;;;5070171;28;19912;-75
2021/04/15 05:36:55;;;;;;;;;;;-2.40;99.90;;;;;;5071136;28;19923;-71
2021/04/15 05:39:21;;;;;;;;;;;-2.30;99.90;;;;;;5072226;28;19909;-71
2021/04/15 05:41:49;;;;;;;;;;;-2.20;99.90;;;;;;5071975;28;19915;-72
2021/04/15 05:44:24;;;;;;;;;;;-2.20;99.90;;;;;;5072292;28;20331;-75
2021/04/15 05:46:50;;;;;;;;;;;-2.10;99.90;;;;;;5071044;28;19963;-73
2021/04/15 05:49:19;;;;;;;;;;;-2.00;99.90;;;;;;5072185;28;19939;-72
2021/04/15 05:51:47;;;;;;;;;;;-2.00;99.90;;;;;;5071887;28;20319;-72
2021/04/15 05:54:15;;;;;;;;;;;-1.90;99.90;;;;;;5072013;28;19920;-71
2021/04/15 05:57:02;;;;;;;;;;;-1.80;99.90;;;;;;5071019;28;19912;-71
2021/04/15 05:59:28;;;;;;;;;;;-1.70;99.90;;;;;;5072389;28;20265;-71
2021/04/15 06:02:26;;;;;;;;;;;-1.60;99.90;;;;;;5071420;28;19962;-71
2021/04/15 06:05:10;;;;;;;;;;;-1.50;99.90;;;;;;5069199;28;19973;-72
2021/04/15 06:07:37;;;;;;;;;;;-1.40;99.90;;;;;;5070695;28;19909;-72
2021/04/15 06:10:03;;;;;;;;;;;-1.30;99.90;;;;;;5071330;28;19908;-72
2021/04/15 06:12:31;;;;;;;;;;;-1.20;99.90;;;;;;5071360;28;19962;-72
2021/04/15 06:15:01;;;;;;;;;;;-1.10;99.90;;;;;;5071594;28;19965;-72
2021/04/15 06:17:58;;;;;;;;;;;-1.00;99.90;;;;;;5070434;28;19959;-72
2021/04/15 06:20:35;;;;;;;;;;;-0.90;99.90;;;;;;5070201;28;20345;-72
2021/04/15 06:23:06;;;;;;;;;;;-0.80;99.90;;;;;;5071108;28;19952;-72
2021/04/15 06:25:33;;;;;;;;;;;-0.70;99.90;;;;;;5071207;28;19915;-74
2021/04/15 06:28:01;;;;;;;;;;;-0.60;99.90;;;;;;5070479;28;19915;-72
2021/04/15 06:30:33;;;;;;;;;;;-0.50;99.90;;;;;;5071688;28;19920;-72
2021/04/15 06:33:07;;;;;;;;;;;-0.40;99.90;;;;;;5069842;28;19962;-75
2021/04/15 06:35:33;;;;;;;;;;;-0.30;99.90;;;;;;5069437;28;19927;-74
2021/04/15 06:38:04;;;;;;;;;;;-0.30;99.90;;;;;;5070457;28;19915;-72
2021/04/15 06:40:33;;;;;;;;;;;-0.20;99.90;;;;;;5071407;28;20545;-72
2021/04/15 06:43:17;;;;;;;;;;;-0.10;99.90;;;;;;5071310;28;19908;-75
2021/04/15 06:46:01;;;;;;;;;;;0.00;99.90;;;;;;5070353;28;19916;-72
2021/04/15 06:48:54;;;;;;;;;;;0.10;99.90;;;;;;5071239;28;19915;-72
2021/04/15 06:51:38;;;;;;;;;;;0.20;99.90;;;;;;5071345;28;19916;-72
2021/04/15 06:54:10;;;;;;;;;;;0.30;99.90;;;;;;5071042;28;19928;-72
2021/04/15 06:56:58;;;;;;;;;;;0.50;99.90;;;;;;5069760;28;19998;-72
2021/04/15 06:59:23;;;;;;;;;;;0.50;99.90;;;;;;5067785;28;20343;-72
2021/04/15 07:02:08;;;;;;;;;;;0.70;99.90;;;;;;5067469;28;19909;-72
2021/04/15 07:04:39;;;;;;;;;;;0.80;99.90;;;;;;5068460;28;20041;-72
2021/04/15 07:07:23;;;;;;;;;;;0.90;99.90;;;;;;5068433;28;20592;-74
2021/04/15 07:09:49;;;;;;;;;;;1.00;99.90;;;;;;5070293;28;19995;-74
2021/04/15 07:12:27;;;;;;;;;;;1.10;99.90;;;;;;5070243;28;20021;-72
2021/04/15 07:14:52;;;;;;;;;;;1.20;99.90;;;;;;5070816;28;19999;-72
2021/04/15 07:17:30;;;;;;;;;;;1.30;99.90;;;;;;5069134;28;20416;-72
2021/04/15 07:20:04;;;;;;;;;;;1.40;99.90;;;;;;5070405;28;19919;-74
2021/04/15 07:22:35;;;;;;;;;;;1.70;99.90;;;;;;5070836;28;19909;-72
2021/04/15 07:25:10;;;;;;;;;;;2.30;99.90;;;;;;5070187;28;20298;-72
2021/04/15 07:27:48;;;;;;;;;;;3.10;99.90;;;;;;5066633;28;20690;-74
2021/04/15 07:30:33;;;;;;;;;;;4.20;99.90;;;;;;5061869;28;19916;-73
2021/04/15 07:33:14;;;;;;;;;;;5.10;99.90;;;;;;5070947;28;19908;-72
2021/04/15 07:35:59;;;;;;;;;;;5.90;99.90;;;;;;5071910;28;19923;-73
2021/04/15 07:38:27;;;;;;;;;;;6.70;99.90;;;;;;5072473;28;19978;-73
2021/04/15 07:40:52;;;;;;;;;;;7.30;99.50;;;;;;5074308;28;20380;-73
2021/04/15 07:43:50;;;;;;;;;;;7.70;97.70;;;;;;5058579;28;19948;-73
2021/04/15 07:46:34;;;;;;;;;;;8.00;97.20;;;;;;5055007;28;19916;-75
2021/04/15 07:49:05;;;;;;;;;;;8.20;96.00;;;;;;5061257;28;19954;-73
2021/04/15 07:51:44;;;;;;;;;;;8.40;95.70;;;;;;5068518;28;20274;-73
2021/04/15 07:54:23;;;;;;;;;;;8.70;95.00;;;;;;5056125;28;20392;-76
2021/04/15 07:56:48;;;;;;;;;;;9.20;94.30;;;;;;5059486;28;21342;-75
2021/04/15 07:59:23;;;;;;;;;;;9.50;92.80;;;;;;5063907;28;20007;-76
2021/04/15 08:01:49;;;;;;;;;;;9.60;92.50;;;;;;5059174;28;20331;-74
2021/04/15 08:04:30;;;;;;;;;;;10.00;91.60;;;;;;5064937;28;19915;-76
2021/04/15 08:06:58;;;;;;;;;;;10.20;91.40;;;;;;5064716;28;19915;-74
2021/04/15 08:09:38;;;;;;;;;;;10.20;90.20;;;;;;5067909;28;19923;-74
2021/04/15 08:12:22;;;;;;;;;;;10.20;89.10;;;;;;5071100;28;20049;-74
2021/04/15 08:15:02;;;;;;;;;;;10.10;89.50;;;;;;5063109;28;20061;-74
2021/04/15 08:17:34;;;;;;;;;;;10.10;88.60;;;;;;5066186;28;19920;-73
2021/04/15 08:20:26;;;;;;;;;;;9.90;89.10;;;;;;5068482;28;20732;-74
2021/04/15 08:23:10;;;;;;;;;;;9.80;89.80;;;;;;5065251;28;20323;-74
2021/04/15 08:25:44;;;;;;;;;;;10.10;87.80;;;;;;5066903;28;19917;-73
2021/04/15 08:28:22;;;;;;;;;;;10.30;87.10;;;;;;5068203;28;20278;-74
2021/04/15 08:30:48;;;;;;;;;;;10.40;87.70;;;;;;5067537;28;20007;-74
2021/04/15 08:33:18;;;;;;;;;;;10.60;87.20;;;;;;5068226;28;20007;-74
2021/04/15 08:35:53;;;;;;;;;;;11.10;87.50;;;;;;5062066;28;20023;-74
2021/04/15 08:38:29;;;;;;;;;;;11.60;85.50;;;;;;5063366;28;20052;-74
2021/04/15 08:40:57;;;;;;;;;;;11.70;81.80;;;;;;5071142;28;19915;-74
2021/04/15 08:43:36;;;;;;;;;;;11.60;80.20;;;;;;5069618;28;19913;-77
2021/04/15 08:46:21;;;;;;;;;;;11.70;82.10;;;;;;5066952;28;19909;-74
2021/04/15 08:48:52;;;;;;;;;;;11.60;80.30;;;;;;5068503;28;19915;-74
2021/04/15 08:51:36;;;;;;;;;;;10.90;79.10;;;;;;5075274;28;19909;-74
2021/04/15 08:54:16;;;;;;;;;;;10.70;82.40;;;;;;5071851;28;19909;-74
2021/04/15 08:57:04;;;;;;;;;;;11.10;83.70;;;;;;5067271;28;19919;-75
2021/04/15 08:59:48;;;;;;;;;;;11.30;81.80;;;;;;5067073;28;19924;-75
2021/04/15 09:02:33;;;;;;;;;;;11.90;83.00;;;;;;5068948;28;20311;-74
2021/04/15 09:05:06;;;;;;;;;;;12.50;77.40;;;;;;5065269;28;19909;-74
2021/04/15 09:07:47;;;;;;;;;;;12.90;76.30;;;;;;5069069;28;19962;-74
2021/04/15 09:10:12;;;;;;;;;;;13.20;77.50;;;;;;5067723;28;19908;-74
2021/04/15 09:12:56;;;;;;;;;;;13.40;74.40;;;;;;5064181;28;19920;-75
2021/04/15 09:15:34;;;;;;;;;;;13.20;72.50;;;;;;5089771;28;19963;-74
2021/04/15 09:18:00;;;;;;;;;;;13.40;74.40;;;;;;5075916;28;20362;-76
2021/04/15 09:20:32;;;;;;;;;;;13.50;71.80;;;;;;5065721;28;19916;-74
2021/04/15 09:23:01;;;;;;;;;;;13.70;68.80;;;;;;5059061;28;20472;-74
2021/04/15 09:25:36;;;;;;;;;;;12.90;65.90;;;;;;5068975;28;20356;-75
2021/04/15 09:28:09;;;;;;;;;;;12.30;71.10;;;;;;5070970;28;19947;-74
2021/04/15 09:30:40;;;;;;;;;;;12.60;71.20;;;;;;5066646;28;20320;-74
2021/04/15 09:33:24;;;;;;;;;;;13.00;69.40;;;;;;5063155;28;19908;-74
2021/04/15 09:36:05;;;;;;;;;;;12.70;65.40;;;;;;5062291;28;19927;-74
2021/04/15 09:38:32;;;;;;;;;;;12.00;67.10;;;;;;5064626;28;19916;-75
2021/04/15 09:41:24;;;;;;;;;;;11.40;66.90;;;;;;5070552;28;19908;-74
2021/04/15 09:43:52;;;;;;;;;;;11.00;64.70;;;;;;5065531;28;19913;-74
2021/04/15 09:46:40;;;;;;;;;;;10.40;67.90;;;;;;5061107;28;19915;-73
2021/04/15 09:49:17;;;;;;;;;;;10.00;69.40;;;;;;5070662;28;19934;-74
2021/04/15 09:51:43;;;;;;;;;;;9.80;69.50;;;;;;5058658;28;19916;-76
2021/04/15 09:54:25;;;;;;;;;;;9.50;72.00;;;;;;5072323;28;19909;-74
2021/04/15 09:56:54;;;;;;;;;;;9.60;71.40;;;;;;5071148;28;19962;-76
2021/04/15 09:59:38;;;;;;;;;;;9.50;70.30;;;;;;5049680;28;20362;-74
2021/04/15 10:02:11;;;;;;;;;;;9.40;69.30;;;;;;5073369;28;20373;-74
2021/04/15 10:04:48;;;;;;;;;;;9.90;70.70;;;;;;5064672;28;20000;-74
2021/04/15 10:07:36;;;;;;;;;;;10.60;70.00;;;;;;5066696;28;19908;-74
2021/04/15 10:10:10;;;;;;;;;;;10.80;68.90;;;;;;5069043;28;20404;-73
2021/04/15 10:12:55;;;;;;;;;;;10.50;67.70;;;;;;5071406;28;19999;-73
2021/04/15 10:15:27;;;;;;;;;;;10.40;69.90;;;;;;5059167;28;19913;-75
2021/04/15 10:18:08;;;;;;;;;;;10.80;69.40;;;;;;5081372;28;19908;-74
2021/04/15 10:20:39;;;;;;;;;;;10.80;67.00;;;;;;5078338;28;19923;-75
2021/04/15 10:23:14;;;;;;;;;;;10.20;66.90;;;;;;5062090;28;20306;-73
2021/04/15 10:25:45;;;;;;;;;;;9.40;70.60;;;;;;5058739;28;19969;-76
2021/04/15 10:28:13;;;;;;;;;;;9.20;72.50;;;;;;5058388;28;19908;-74
2021/04/15 10:30:51;;;;;;;;;;;8.90;70.50;;;;;;5057666;28;20280;-73
2021/04/15 10:33:19;;;;;;;;;;;8.70;71.90;;;;;;5066204;28;19909;-74
2021/04/15 10:36:04;;;;;;;;;;;8.70;71.50;;;;;;5089848;28;20346;-73
2021/04/15 10:38:29;;;;;;;;;;;9.20;70.10;;;;;;5059998;28;19909;-73
2021/04/15 10:40:55;;;;;;;;;;;10.30;73.00;;;;;;5063647;28;20311;-74
2021/04/15 10:43:39;;;;;;;;;;;11.00;64.10;;;;;;5070665;28;19931;-74
2021/04/15 10:46:25;;;;;;;;;;;11.30;63.20;;;;;;5070277;28;19916;-73
2021/04/15 10:48:51;;;;;;;;;;;11.10;61.60;;;;;;5070458;28;20430;-73
2021/04/15 10:51:37;;;;;;;;;;;10.60;63.40;;;;;;5070877;28;19996;-74
2021/04/15 10:54:18;;;;;;;;;;;10.10;64.20;;;;;;5070325;28;19955;-74
2021/04/15 10:56:45;;;;;;;;;;;9.70;66.20;;;;;;5070524;28;19909;-73
2021/04/15 10:59:17;;;;;;;;;;;9.60;68.00;;;;;;5070697;28;19961;-73
2021/04/15 11:01:44;;;;;;;;;;;9.60;68.60;;;;;;5070792;28;19908;-75
2021/04/15 11:04:09;;;;;;;;;;;10.20;66.70;;;;;;5069831;28;19915;-74
2021/04/15 11:06:46;;;;;;;;;;;11.00;66.90;;;;;;5069896;28;19916;-75
2021/04/15 11:09:33;;;;;;;;;;;11.90;66.00;;;;;;5069603;28;19934;-73
2021/04/15 11:12:02;;;;;;;;;;;12.00;63.70;;;;;;5070782;28;20396;-73
2021/04/15 11:14:47;;;;;;;;;;;11.50;63.70;;;;;;5062181;28;19916;-73
2021/04/15 11:17:19;;;;;;;;;;;10.60;64.90;;;;;;5064918;28;19909;-74
2021/04/15 11:19:46;;;;;;;;;;;10.00;69.00;;;;;;5069401;28;20388;-73
2021/04/15 11:22:19;;;;;;;;;;;9.60;70.70;;;;;;5075565;28;19908;-73
2021/04/15 11:24:45;;;;;;;;;;;9.20;72.20;;;;;;5059565;28;20409;-74
2021/04/15 11:27:11;;;;;;;;;;;9.00;75.20;;;;;;5055900;28;19912;-73
2021/04/15 11:29:43;;;;;;;;;;;8.60;73.70;;;;;;5070706;28;19908;-73
2021/04/15 11:32:27;;;;;;;;;;;8.30;74.20;;;;;;5063041;28;20453;-73
2021/04/15 11:35:05;;;;;;;;;;;8.10;73.50;;;;;;5065541;28;19912;-73
2021/04/15 11:37:31;;;;;;;;;;;7.80;73.90;;;;;;5069077;28;20300;-73
2021/04/15 11:40:14;;;;;;;;;;;7.90;72.90;;;;;;5066226;28;19920;-73
2021/04/15 11:42:39;;;;;;;;;;;7.70;73.30;;;;;;5060185;28;19908;-73
2021/04/15 11:45:05;;;;;;;;;;;7.60;75.50;;;;;;5068434;28;19916;-73
2021/04/15 11:47:31;;;;;;;;;;;7.60;74.60;;;;;;5059499;28;19916;-73
2021/04/15 11:50:09;;;;;;;;;;;7.70;76.00;;;;;;5070275;28;19947;-73
2021/04/15 11:52:36;;;;;;;;;;;8.10;73.70;;;;;;5062867;28;19909;-73
2021/04/15 11:55:07;;;;;;;;;;;8.80;70.70;;;;;;5070395;28;19951;-73
2021/04/15 11:57:38;;;;;;;;;;;9.70;69.90;;;;;;5069388;28;19915;-76
2021/04/15 12:00:04;;;;;;;;;;;10.30;65.20;;;;;;5068342;28;20013;-73
2021/04/15 12:02:35;;;;;;;;;;;11.10;67.50;;;;;;5057808;28;20015;-73
2021/04/15 12:05:09;;;;;;;;;;;11.80;64.40;;;;;;5066417;28;19909;-74
2021/04/15 12:07:35;;;;;;;;;;;12.60;66.80;;;;;;5067693;28;20405;-73
2021/04/15 12:10:00;;;;;;;;;;;13.30;62.50;;;;;;5063916;28;19948;-74
2021/04/15 12:12:37;;;;;;;;;;;13.50;61.90;;;;;;5063491;28;20003;-75
2021/04/15 12:15:04;;;;;;;;;;;13.70;60.30;;;;;;5064852;28;19912;-77
2021/04/15 12:17:40;;;;;;;;;;;13.70;60.60;;;;;;5065193;28;20377;-73
2021/04/15 12:20:13;;;;;;;;;;;12.90;62.10;;;;;;5061227;28;19916;-73
2021/04/15 12:22:46;;;;;;;;;;;11.90;64.10;;;;;;5068665;28;19913;-75
2021/04/15 12:25:17;;;;;;;;;;;11.30;65.70;;;;;;5063024;28;20003;-73
2021/04/15 12:27:47;;;;;;;;;;;10.70;66.60;;;;;;5070684;28;19961;-73
2021/04/15 12:30:25;;;;;;;;;;;10.40;68.90;;;;;;5067476;28;19962;-74
2021/04/15 12:33:03;;;;;;;;;;;10.30;69.00;;;;;;5072292;28;19951;-73
2021/04/15 12:35:47;;;;;;;;;;;10.00;68.20;;;;;;5068952;28;19963;-76
2021/04/15 12:38:31;;;;;;;;;;;9.90;68.30;;;;;;5053944;28;20373;-74
2021/04/15 12:41:01;;;;;;;;;;;9.50;68.30;;;;;;5058841;28;19908;-76
2021/04/15 12:43:40;;;;;;;;;;;9.30;70.00;;;;;;5071944;28;20308;-73
2021/04/15 12:46:06;;;;;;;;;;;8.90;71.40;;;;;;5073369;28;19995;-73
2021/04/15 12:48:41;;;;;;;;;;;8.60;70.50;;;;;;5072314;28;20007;-73
2021/04/15 12:51:08;;;;;;;;;;;8.30;71.30;;;;;;5073464;28;20360;-73
2021/04/15 12:53:36;;;;;;;;;;;8.20;72.60;;;;;;5073517;28;19961;-73
2021/04/15 12:56:02;;;;;;;;;;;7.90;70.30;;;;;;5072464;28;19923;-74
2021/04/15 12:58:28;;;;;;;;;;;7.80;70.70;;;;;;5072834;28;20003;-75
2021/04/15 13:00:55;;;;;;;;;;;7.80;71.70;;;;;;5072862;28;19917;-74
2021/04/15 13:03:20;;;;;;;;;;;8.00;70.60;;;;;;5071607;28;19916;-73
2021/04/15 13:05:48;;;;;;;;;;;8.30;71.60;;;;;;5072061;28;20336;-73
2021/04/15 13:08:46;;;;;;;;;;;8.60;68.20;;;;;;5072654;28;19913;-73
2021/04/15 13:11:17;;;;;;;;;;;8.80;66.60;;;;;;5071319;28;19912;-74
2021/04/15 13:13:47;;;;;;;;;;;9.10;68.70;;;;;;5073073;28;20292;-73
2021/04/15 13:16:31;;;;;;;;;;;9.20;66.60;;;;;;5071748;28;19913;-73
2021/04/15 13:18:57;;;;;;;;;;;9.00;65.50;;;;;;5072528;28;20350;-74
2021/04/15 13:21:25;;;;;;;;;;;8.90;66.10;;;;;;5072835;28;19940;-73
2021/04/15 13:23:51;;;;;;;;;;;8.80;67.70;;;;;;5072227;28;19995;-73
2021/04/15 13:26:16;;;;;;;;;;;8.90;68.00;;;;;;5071367;28;20001;-73
2021/04/15 13:28:41;;;;;;;;;;;8.90;66.30;;;;;;5072233;28;19913;-73
2021/04/15 13:31:08;;;;;;;;;;;9.00;67.90;;;;;;5071477;28;19923;-73
2021/04/15 13:33:35;;;;;;;;;;;9.20;66.60;;;;;;5070924;28;19916;-73
2021/04/15 13:36:01;;;;;;;;;;;9.30;65.90;;;;;;5071290;28;19917;-73
2021/04/15 13:38:26;;;;;;;;;;;9.30;66.50;;;;;;5071711;28;19977;-74
2021/04/15 13:40:55;;;;;;;;;;;9.20;65.80;;;;;;5072286;28;20278;-75
2021/04/15 13:43:32;;;;;;;;;;;9.10;67.30;;;;;;5072147;28;19931;-75
2021/04/15 13:46:17;;;;;;;;;;;8.90;66.20;;;;;;5071517;28;20170;-73
2021/04/15 13:48:44;;;;;;;;;;;8.70;67.80;;;;;;5071670;28;19924;-76
2021/04/15 13:51:34;;;;;;;;;;;8.60;69.30;;;;;;5072034;28;19908;-73
2021/04/15 13:54:02;;;;;;;;;;;8.60;67.60;;;;;;5070881;28;19908;-73
2021/04/15 13:56:37;;;;;;;;;;;8.60;67.40;;;;;;5070085;28;19928;-73
2021/04/15 13:59:04;;;;;;;;;;;8.70;67.40;;;;;;5072001;28;20058;-75
2021/04/15 14:01:38;;;;;;;;;;;8.50;71.80;;;;;;5072749;28;20260;-73
2021/04/15 14:04:03;;;;;;;;;;;8.20;76.60;;;;;;5070991;28;19995;-73
2021/04/15 14:06:30;;;;;;;;;;;7.70;78.00;;;;;;5071076;28;19959;-73
2021/04/15 14:09:02;;;;;;;;;;;7.40;79.60;;;;;;5071575;28;19908;-73
2021/04/15 14:11:27;;;;;;;;;;;7.10;79.40;;;;;;5071845;28;20338;-73
2021/04/15 14:13:54;;;;;;;;;;;6.80;80.30;;;;;;5071542;28;19913;-73
2021/04/15 14:16:20;;;;;;;;;;;6.50;81.70;;;;;;5070686;28;19956;-73
2021/04/15 14:18:46;;;;;;;;;;;6.30;84.10;;;;;;5071014;28;19950;-73
2021/04/15 14:21:16;;;;;;;;;;;6.30;85.50;;;;;;5071457;28;19912;-74
2021/04/15 14:23:44;;;;;;;;;;;6.70;85.10;;;;;;5071521;28;19913;-73
2021/04/15 14:26:29;;;;;;;;;;;7.50;83.40;;;;;;5070497;28;19916;-76
2021/04/15 14:29:08;;;;;;;;;;;8.00;81.10;;;;;;5071039;28;19947;-74
2021/04/15 14:31:36;;;;;;;;;;;8.70;81.90;;;;;;5071190;28;19908;-74
2021/04/15 14:34:14;;;;;;;;;;;9.10;77.00;;;;;;5070194;28;20266;-73
2021/04/15 14:36:40;;;;;;;;;;;9.20;79.10;;;;;;5069797;28;19981;-73
2021/04/15 14:39:13;;;;;;;;;;;9.60;81.20;;;;;;5070931;28;20365;-76
2021/04/15 14:41:39;;;;;;;;;;;10.10;75.40;;;;;;5070776;28;20326;-73
2021/04/15 14:44:09;;;;;;;;;;;10.30;74.20;;;;;;5071205;28;19908;-73
2021/04/15 14:46:38;;;;;;;;;;;10.60;73.70;;;;;;5070323;28;20377;-73
2021/04/15 14:49:10;;;;;;;;;;;10.90;73.90;;;;;;5070301;28;19908;-73
2021/04/15 14:51:36;;;;;;;;;;;11.30;72.30;;;;;;5070942;28;19916;-75
2021/04/15 14:54:15;;;;;;;;;;;11.50;70.00;;;;;;5070958;28;19917;-73
2021/04/15 14:56:41;;;;;;;;;;;11.40;69.90;;;;;;5070513;28;19912;-73
2021/04/15 14:59:08;;;;;;;;;;;11.40;66.80;;;;;;5071472;28;20251;-74
2021/04/15 15:01:35;;;;;;;;;;;11.50;65.10;;;;;;5069857;28;19908;-73